sensor_id;sensor_type;location;lat;lon;timestamp;P1;durP1;ratioP1;P2;durP2;ratioP2
42770;SDS011;28426;42.872;25.314;2023-04-24T00:00:40;7.10;;;3.53;;
42770;SDS011;28426;42.872;25.314;2023-04-24T00:03:14;10.70;;;3.70;;
42770;SDS011;28426;42.872;25.314;2023-04-24T00:05:48;10.55;;;3.90;;
42770;SDS011;28426;42.872;25.314;2023-04-24T00:08:19;8.48;;;3.90;;
42770;SDS011;28426;42.872;25.314;2023-04-24T00:10:51;12.07;;;3.65;;
42770;SDS011;28426;42.872;25.314;2023-04-24T00:13:22;7.38;;;3.67;;
42770;SDS011;28426;42.872;25.314;2023-04-24T00:15:53;11.68;;;3.88;;
42770;SDS011;28426;42.872;25.314;2023-04-24T00:18:26;9.25;;;3.78;;
42770;SDS011;28426;42.872;25.314;2023-04-24T00:20:57;7.85;;;3.45;;
42770;SDS011;28426;42.872;25.314;2023-04-24T00:23:28;11.45;;;3.67;;
42770;SDS011;28426;42.872;25.314;2023-04-24T00:25:59;8.02;;;3.47;;
42770;SDS011;28426;42.872;25.314;2023-04-24T00:28:30;8.77;;;3.40;;
42770;SDS011;28426;42.872;25.314;2023-04-24T00:31:00;9.13;;;3.78;;
42770;SDS011;28426;42.872;25.314;2023-04-24T00:33:34;7.10;;;3.60;;
42770;SDS011;28426;42.872;25.314;2023-04-24T00:36:06;6.38;;;3.20;;
42770;SDS011;28426;42.872;25.314;2023-04-24T00:38:37;9.23;;;3.58;;
42770;SDS011;28426;42.872;25.314;2023-04-24T00:41:07;10.70;;;3.40;;
42770;SDS011;28426;42.872;25.314;2023-04-24T00:43:41;10.77;;;3.65;;
42770;SDS011;28426;42.872;25.314;2023-04-24T00:46:12;8.63;;;3.50;;
42770;SDS011;28426;42.872;25.314;2023-04-24T00:48:47;8.23;;;3.42;;
42770;SDS011;28426;42.872;25.314;2023-04-24T00:51:17;11.90;;;3.35;;
42770;SDS011;28426;42.872;25.314;2023-04-24T00:53:48;9.30;;;3.28;;
42770;SDS011;28426;42.872;25.314;2023-04-24T00:56:19;9.52;;;3.83;;
42770;SDS011;28426;42.872;25.314;2023-04-24T00:58:50;8.00;;;2.90;;
42770;SDS011;28426;42.872;25.314;2023-04-24T01:01:22;9.32;;;3.38;;
42770;SDS011;28426;42.872;25.314;2023-04-24T01:03:55;9.32;;;3.15;;
42770;SDS011;28426;42.872;25.314;2023-04-24T01:06:29;7.07;;;3.20;;
42770;SDS011;28426;42.872;25.314;2023-04-24T01:09:00;8.35;;;3.78;;
42770;SDS011;28426;42.872;25.314;2023-04-24T01:11:31;8.23;;;3.65;;
42770;SDS011;28426;42.872;25.314;2023-04-24T01:14:02;8.52;;;3.00;;
42770;SDS011;28426;42.872;25.314;2023-04-24T01:16:33;7.97;;;3.30;;
42770;SDS011;28426;42.872;25.314;2023-04-24T01:19:08;8.10;;;3.15;;
42770;SDS011;28426;42.872;25.314;2023-04-24T01:21:41;7.00;;;3.17;;
42770;SDS011;28426;42.872;25.314;2023-04-24T01:24:16;6.95;;;3.03;;
42770;SDS011;28426;42.872;25.314;2023-04-24T01:26:47;7.88;;;3.00;;
42770;SDS011;28426;42.872;25.314;2023-04-24T01:29:18;8.13;;;3.08;;
42770;SDS011;28426;42.872;25.314;2023-04-24T01:31:49;9.40;;;3.20;;
42770;SDS011;28426;42.872;25.314;2023-04-24T01:34:20;8.73;;;3.58;;
42770;SDS011;28426;42.872;25.314;2023-04-24T01:36:51;6.55;;;3.00;;
42770;SDS011;28426;42.872;25.314;2023-04-24T01:39:26;5.55;;;3.17;;
42770;SDS011;28426;42.872;25.314;2023-04-24T01:41:57;12.23;;;4.03;;
42770;SDS011;28426;42.872;25.314;2023-04-24T01:44:28;10.70;;;3.35;;
42770;SDS011;28426;42.872;25.314;2023-04-24T01:47:00;9.93;;;3.22;;
42770;SDS011;28426;42.872;25.314;2023-04-24T01:49:31;11.88;;;3.40;;
42770;SDS011;28426;42.872;25.314;2023-04-24T01:52:06;7.60;;;3.08;;
42770;SDS011;28426;42.872;25.314;2023-04-24T01:54:39;7.65;;;3.20;;
42770;SDS011;28426;42.872;25.314;2023-04-24T01:57:10;6.68;;;3.55;;
42770;SDS011;28426;42.872;25.314;2023-04-24T01:59:41;6.63;;;2.88;;
42770;SDS011;28426;42.872;25.314;2023-04-24T02:02:12;7.85;;;3.20;;
42770;SDS011;28426;42.872;25.314;2023-04-24T02:04:43;6.60;;;3.15;;
42770;SDS011;28426;42.872;25.314;2023-04-24T02:07:14;10.57;;;3.58;;
42770;SDS011;28426;42.872;25.314;2023-04-24T02:09:47;10.10;;;3.47;;
42770;SDS011;28426;42.872;25.314;2023-04-24T02:12:19;8.82;;;3.85;;
42770;SDS011;28426;42.872;25.314;2023-04-24T02:14:51;8.13;;;3.90;;
42770;SDS011;28426;42.872;25.314;2023-04-24T02:17:22;9.57;;;4.50;;
42770;SDS011;28426;42.872;25.314;2023-04-24T02:19:53;8.25;;;4.32;;
42770;SDS011;28426;42.872;25.314;2023-04-24T02:22:24;10.45;;;4.63;;
42770;SDS011;28426;42.872;25.314;2023-04-24T02:24:57;9.25;;;4.50;;
42770;SDS011;28426;42.872;25.314;2023-04-24T02:27:33;10.90;;;4.85;;
42770;SDS011;28426;42.872;25.314;2023-04-24T02:30:06;12.13;;;4.53;;
42770;SDS011;28426;42.872;25.314;2023-04-24T02:32:38;11.98;;;4.40;;
42770;SDS011;28426;42.872;25.314;2023-04-24T02:35:10;9.68;;;4.70;;
42770;SDS011;28426;42.872;25.314;2023-04-24T02:37:41;10.65;;;5.78;;
42770;SDS011;28426;42.872;25.314;2023-04-24T02:40:15;15.52;;;5.85;;
42770;SDS011;28426;42.872;25.314;2023-04-24T02:42:46;29.08;;;7.40;;
42770;SDS011;28426;42.872;25.314;2023-04-24T02:45:17;8.70;;;5.07;;
42770;SDS011;28426;42.872;25.314;2023-04-24T02:47:48;10.32;;;5.43;;
42770;SDS011;28426;42.872;25.314;2023-04-24T02:50:19;15.20;;;5.43;;
42770;SDS011;28426;42.872;25.314;2023-04-24T02:52:49;9.18;;;5.00;;
42770;SDS011;28426;42.872;25.314;2023-04-24T02:55:23;10.90;;;5.28;;
42770;SDS011;28426;42.872;25.314;2023-04-24T02:57:53;9.80;;;5.28;;
42770;SDS011;28426;42.872;25.314;2023-04-24T03:00:24;11.15;;;5.22;;
42770;SDS011;28426;42.872;25.314;2023-04-24T03:02:55;12.95;;;5.82;;
42770;SDS011;28426;42.872;25.314;2023-04-24T03:05:27;10.60;;;5.00;;
42770;SDS011;28426;42.872;25.314;2023-04-24T03:07:58;10.20;;;5.20;;
42770;SDS011;28426;42.872;25.314;2023-04-24T03:10:31;13.80;;;4.97;;
42770;SDS011;28426;42.872;25.314;2023-04-24T03:13:02;22.60;;;5.78;;
42770;SDS011;28426;42.872;25.314;2023-04-24T03:15:33;8.25;;;4.72;;
42770;SDS011;28426;42.872;25.314;2023-04-24T03:18:04;16.17;;;5.88;;
42770;SDS011;28426;42.872;25.314;2023-04-24T03:20:35;14.10;;;5.10;;
42770;SDS011;28426;42.872;25.314;2023-04-24T03:23:07;10.85;;;4.72;;
42770;SDS011;28426;42.872;25.314;2023-04-24T03:25:41;11.50;;;5.05;;
42770;SDS011;28426;42.872;25.314;2023-04-24T03:28:12;14.88;;;6.43;;
42770;SDS011;28426;42.872;25.314;2023-04-24T03:30:48;11.45;;;5.88;;
42770;SDS011;28426;42.872;25.314;2023-04-24T03:33:20;11.68;;;5.97;;
42770;SDS011;28426;42.872;25.314;2023-04-24T03:35:59;13.40;;;6.90;;
42770;SDS011;28426;42.872;25.314;2023-04-24T03:38:38;10.77;;;6.30;;
42770;SDS011;28426;42.872;25.314;2023-04-24T03:41:25;12.52;;;5.35;;
42770;SDS011;28426;42.872;25.314;2023-04-24T03:44:09;9.95;;;5.35;;
42770;SDS011;28426;42.872;25.314;2023-04-24T03:46:41;13.82;;;5.30;;
42770;SDS011;28426;42.872;25.314;2023-04-24T03:49:12;10.75;;;5.45;;
42770;SDS011;28426;42.872;25.314;2023-04-24T03:51:46;9.32;;;4.90;;
42770;SDS011;28426;42.872;25.314;2023-04-24T03:54:20;16.50;;;5.65;;
42770;SDS011;28426;42.872;25.314;2023-04-24T03:56:55;13.45;;;5.50;;
42770;SDS011;28426;42.872;25.314;2023-04-24T03:59:29;22.73;;;6.35;;
42770;SDS011;28426;42.872;25.314;2023-04-24T04:04:46;12.40;;;5.78;;
42770;SDS011;28426;42.872;25.314;2023-04-24T04:07:17;15.32;;;5.88;;
42770;SDS011;28426;42.872;25.314;2023-04-24T04:09:48;11.02;;;6.20;;
42770;SDS011;28426;42.872;25.314;2023-04-24T04:12:21;12.55;;;5.72;;
42770;SDS011;28426;42.872;25.314;2023-04-24T04:14:54;12.98;;;5.20;;
42770;SDS011;28426;42.872;25.314;2023-04-24T04:17:25;16.05;;;5.30;;
42770;SDS011;28426;42.872;25.314;2023-04-24T04:19:58;12.38;;;4.95;;
42770;SDS011;28426;42.872;25.314;2023-04-24T04:22:34;16.55;;;5.45;;
42770;SDS011;28426;42.872;25.314;2023-04-24T04:25:08;20.88;;;6.53;;
42770;SDS011;28426;42.872;25.314;2023-04-24T04:27:44;19.48;;;6.20;;
42770;SDS011;28426;42.872;25.314;2023-04-24T04:30:15;19.98;;;6.88;;
42770;SDS011;28426;42.872;25.314;2023-04-24T04:32:55;19.23;;;6.18;;
42770;SDS011;28426;42.872;25.314;2023-04-24T04:35:27;16.85;;;6.15;;
42770;SDS011;28426;42.872;25.314;2023-04-24T04:37:58;18.15;;;7.07;;
42770;SDS011;28426;42.872;25.314;2023-04-24T04:40:43;19.05;;;6.90;;
42770;SDS011;28426;42.872;25.314;2023-04-24T04:43:20;19.75;;;6.72;;
42770;SDS011;28426;42.872;25.314;2023-04-24T04:45:53;24.88;;;7.45;;
42770;SDS011;28426;42.872;25.314;2023-04-24T04:48:43;17.23;;;6.13;;
42770;SDS011;28426;42.872;25.314;2023-04-24T04:51:14;11.35;;;6.00;;
42770;SDS011;28426;42.872;25.314;2023-04-24T04:53:45;13.98;;;5.60;;
42770;SDS011;28426;42.872;25.314;2023-04-24T04:56:15;15.52;;;6.28;;
42770;SDS011;28426;42.872;25.314;2023-04-24T04:58:49;17.58;;;6.20;;
42770;SDS011;28426;42.872;25.314;2023-04-24T05:01:20;16.52;;;5.85;;
42770;SDS011;28426;42.872;25.314;2023-04-24T05:03:51;13.73;;;6.93;;
42770;SDS011;28426;42.872;25.314;2023-04-24T05:06:22;19.10;;;8.05;;
42770;SDS011;28426;42.872;25.314;2023-04-24T05:08:54;20.60;;;7.10;;
42770;SDS011;28426;42.872;25.314;2023-04-24T05:11:32;17.80;;;6.82;;
42770;SDS011;28426;42.872;25.314;2023-04-24T05:14:06;15.05;;;6.45;;
42770;SDS011;28426;42.872;25.314;2023-04-24T05:16:39;12.32;;;6.10;;
42770;SDS011;28426;42.872;25.314;2023-04-24T05:19:12;24.48;;;7.07;;
42770;SDS011;28426;42.872;25.314;2023-04-24T05:21:44;21.90;;;8.57;;
42770;SDS011;28426;42.872;25.314;2023-04-24T05:24:15;17.83;;;8.52;;
42770;SDS011;28426;42.872;25.314;2023-04-24T05:26:58;18.65;;;8.45;;
42770;SDS011;28426;42.872;25.314;2023-04-24T05:29:37;20.35;;;10.18;;
42770;SDS011;28426;42.872;25.314;2023-04-24T05:32:09;22.43;;;8.37;;
42770;SDS011;28426;42.872;25.314;2023-04-24T05:34:40;25.58;;;9.70;;
42770;SDS011;28426;42.872;25.314;2023-04-24T05:37:11;18.08;;;8.65;;
42770;SDS011;28426;42.872;25.314;2023-04-24T05:39:41;16.67;;;8.70;;
42770;SDS011;28426;42.872;25.314;2023-04-24T05:42:12;17.92;;;8.52;;
42770;SDS011;28426;42.872;25.314;2023-04-24T05:44:46;16.48;;;7.43;;
42770;SDS011;28426;42.872;25.314;2023-04-24T05:47:19;15.55;;;7.35;;
42770;SDS011;28426;42.872;25.314;2023-04-24T05:49:52;12.10;;;6.53;;
42770;SDS011;28426;42.872;25.314;2023-04-24T05:52:23;14.23;;;6.35;;
42770;SDS011;28426;42.872;25.314;2023-04-24T05:54:54;13.68;;;6.65;;
42770;SDS011;28426;42.872;25.314;2023-04-24T05:57:30;15.70;;;6.45;;
42770;SDS011;28426;42.872;25.314;2023-04-24T06:00:06;12.52;;;5.72;;
42770;SDS011;28426;42.872;25.314;2023-04-24T06:02:39;11.68;;;5.70;;
42770;SDS011;28426;42.872;25.314;2023-04-24T06:05:12;15.32;;;6.13;;
42770;SDS011;28426;42.872;25.314;2023-04-24T06:07:44;16.85;;;6.18;;
42770;SDS011;28426;42.872;25.314;2023-04-24T06:10:15;20.65;;;6.53;;
42770;SDS011;28426;42.872;25.314;2023-04-24T06:12:46;9.57;;;5.30;;
42770;SDS011;28426;42.872;25.314;2023-04-24T06:15:20;17.67;;;5.97;;
42770;SDS011;28426;42.872;25.314;2023-04-24T06:18:00;11.07;;;4.47;;
42770;SDS011;28426;42.872;25.314;2023-04-24T06:20:32;13.98;;;4.88;;
42770;SDS011;28426;42.872;25.314;2023-04-24T06:23:03;11.55;;;4.30;;
42770;SDS011;28426;42.872;25.314;2023-04-24T06:25:34;9.05;;;4.28;;
42770;SDS011;28426;42.872;25.314;2023-04-24T06:28:05;7.93;;;3.10;;
42770;SDS011;28426;42.872;25.314;2023-04-24T06:30:38;7.75;;;3.03;;
42770;SDS011;28426;42.872;25.314;2023-04-24T06:33:11;10.95;;;3.33;;
42770;SDS011;28426;42.872;25.314;2023-04-24T06:35:47;10.85;;;3.65;;
42770;SDS011;28426;42.872;25.314;2023-04-24T06:38:18;12.23;;;3.22;;
42770;SDS011;28426;42.872;25.314;2023-04-24T06:40:49;5.55;;;2.50;;
42770;SDS011;28426;42.872;25.314;2023-04-24T06:43:20;5.53;;;2.75;;
42770;SDS011;28426;42.872;25.314;2023-04-24T06:45:53;5.80;;;2.40;;
42770;SDS011;28426;42.872;25.314;2023-04-24T06:48:24;9.32;;;3.35;;
42770;SDS011;28426;42.872;25.314;2023-04-24T06:50:55;6.82;;;2.88;;
42770;SDS011;28426;42.872;25.314;2023-04-24T06:53:26;8.50;;;3.22;;
42770;SDS011;28426;42.872;25.314;2023-04-24T06:55:57;8.15;;;2.50;;
42770;SDS011;28426;42.872;25.314;2023-04-24T06:58:28;6.30;;;2.80;;
42770;SDS011;28426;42.872;25.314;2023-04-24T07:01:03;11.13;;;3.20;;
42770;SDS011;28426;42.872;25.314;2023-04-24T07:03:34;7.57;;;3.03;;
42770;SDS011;28426;42.872;25.314;2023-04-24T07:06:05;5.75;;;2.70;;
42770;SDS011;28426;42.872;25.314;2023-04-24T07:08:36;9.45;;;3.45;;
42770;SDS011;28426;42.872;25.314;2023-04-24T07:11:09;7.40;;;3.28;;
42770;SDS011;28426;42.872;25.314;2023-04-24T07:13:39;6.97;;;2.70;;
42770;SDS011;28426;42.872;25.314;2023-04-24T07:16:14;9.38;;;3.30;;
42770;SDS011;28426;42.872;25.314;2023-04-24T07:18:44;5.25;;;2.53;;
42770;SDS011;28426;42.872;25.314;2023-04-24T07:21:15;7.03;;;2.83;;
42770;SDS011;28426;42.872;25.314;2023-04-24T07:23:46;6.78;;;2.92;;
42770;SDS011;28426;42.872;25.314;2023-04-24T07:26:17;6.60;;;3.00;;
42770;SDS011;28426;42.872;25.314;2023-04-24T07:28:48;6.95;;;3.55;;
42770;SDS011;28426;42.872;25.314;2023-04-24T07:31:21;18.55;;;4.55;;
42770;SDS011;28426;42.872;25.314;2023-04-24T07:33:53;9.48;;;3.88;;
42770;SDS011;28426;42.872;25.314;2023-04-24T07:36:25;14.13;;;3.53;;
42770;SDS011;28426;42.872;25.314;2023-04-24T07:38:56;9.68;;;3.47;;
42770;SDS011;28426;42.872;25.314;2023-04-24T07:41:27;13.65;;;4.57;;
42770;SDS011;28426;42.872;25.314;2023-04-24T07:43:58;11.00;;;3.33;;
42770;SDS011;28426;42.872;25.314;2023-04-24T07:46:32;10.07;;;3.20;;
42770;SDS011;28426;42.872;25.314;2023-04-24T07:49:03;10.37;;;3.60;;
42770;SDS011;28426;42.872;25.314;2023-04-24T07:51:40;6.57;;;3.03;;
42770;SDS011;28426;42.872;25.314;2023-04-24T07:54:11;8.82;;;3.20;;
42770;SDS011;28426;42.872;25.314;2023-04-24T07:56:43;7.13;;;2.88;;
42770;SDS011;28426;42.872;25.314;2023-04-24T07:59:14;10.10;;;3.70;;
42770;SDS011;28426;42.872;25.314;2023-04-24T08:01:47;14.77;;;4.47;;
42770;SDS011;28426;42.872;25.314;2023-04-24T08:04:18;8.23;;;3.00;;
42770;SDS011;28426;42.872;25.314;2023-04-24T08:06:49;8.07;;;3.20;;
42770;SDS011;28426;42.872;25.314;2023-04-24T08:09:20;6.18;;;2.70;;
42770;SDS011;28426;42.872;25.314;2023-04-24T08:11:53;9.32;;;2.75;;
42770;SDS011;28426;42.872;25.314;2023-04-24T08:14:24;7.00;;;3.03;;
42770;SDS011;28426;42.872;25.314;2023-04-24T08:16:57;8.07;;;3.63;;
42770;SDS011;28426;42.872;25.314;2023-04-24T08:19:29;14.10;;;3.53;;
42770;SDS011;28426;42.872;25.314;2023-04-24T08:22:00;7.10;;;3.38;;
42770;SDS011;28426;42.872;25.314;2023-04-24T08:24:31;18.20;;;7.10;;
42770;SDS011;28426;42.872;25.314;2023-04-24T08:27:02;10.75;;;3.70;;
42770;SDS011;28426;42.872;25.314;2023-04-24T08:29:32;7.05;;;3.28;;
42770;SDS011;28426;42.872;25.314;2023-04-24T08:32:06;6.88;;;3.03;;
42770;SDS011;28426;42.872;25.314;2023-04-24T08:34:37;8.38;;;3.42;;
42770;SDS011;28426;42.872;25.314;2023-04-24T08:37:07;12.90;;;3.75;;
42770;SDS011;28426;42.872;25.314;2023-04-24T08:39:38;13.55;;;3.90;;
42770;SDS011;28426;42.872;25.314;2023-04-24T08:42:10;20.83;;;4.70;;
42770;SDS011;28426;42.872;25.314;2023-04-24T08:44:43;8.88;;;4.10;;
42770;SDS011;28426;42.872;25.314;2023-04-24T08:47:16;13.73;;;8.55;;
42770;SDS011;28426;42.872;25.314;2023-04-24T08:49:50;7.53;;;3.90;;
42770;SDS011;28426;42.872;25.314;2023-04-24T08:52:22;21.38;;;5.45;;
42770;SDS011;28426;42.872;25.314;2023-04-24T08:54:55;16.75;;;5.10;;
42770;SDS011;28426;42.872;25.314;2023-04-24T08:57:31;6.55;;;3.70;;
42770;SDS011;28426;42.872;25.314;2023-04-24T09:00:03;9.23;;;3.17;;
42770;SDS011;28426;42.872;25.314;2023-04-24T09:05:13;9.17;;;3.50;;
42770;SDS011;28426;42.872;25.314;2023-04-24T09:07:48;7.90;;;4.03;;
42770;SDS011;28426;42.872;25.314;2023-04-24T09:10:24;8.68;;;3.80;;
42770;SDS011;28426;42.872;25.314;2023-04-24T09:12:57;6.30;;;3.03;;
42770;SDS011;28426;42.872;25.314;2023-04-24T09:15:29;6.55;;;3.10;;
42770;SDS011;28426;42.872;25.314;2023-04-24T09:18:04;7.32;;;3.50;;
42770;SDS011;28426;42.872;25.314;2023-04-24T09:20:35;8.43;;;3.80;;
42770;SDS011;28426;42.872;25.314;2023-04-24T09:23:30;7.57;;;3.35;;
42770;SDS011;28426;42.872;25.314;2023-04-24T09:26:02;7.88;;;3.10;;
42770;SDS011;28426;42.872;25.314;2023-04-24T09:28:35;6.47;;;3.20;;
42770;SDS011;28426;42.872;25.314;2023-04-24T09:31:07;4.82;;;2.90;;
42770;SDS011;28426;42.872;25.314;2023-04-24T09:33:43;13.93;;;3.83;;
42770;SDS011;28426;42.872;25.314;2023-04-24T09:36:27;6.15;;;3.08;;
42770;SDS011;28426;42.872;25.314;2023-04-24T09:39:00;8.55;;;3.40;;
42770;SDS011;28426;42.872;25.314;2023-04-24T09:41:32;7.45;;;2.97;;
42770;SDS011;28426;42.872;25.314;2023-04-24T09:44:10;5.75;;;2.90;;
42770;SDS011;28426;42.872;25.314;2023-04-24T09:46:42;6.55;;;3.50;;
42770;SDS011;28426;42.872;25.314;2023-04-24T09:49:22;7.28;;;3.00;;
42770;SDS011;28426;42.872;25.314;2023-04-24T09:52:02;4.85;;;2.75;;
42770;SDS011;28426;42.872;25.314;2023-04-24T09:54:34;8.52;;;3.28;;
42770;SDS011;28426;42.872;25.314;2023-04-24T09:57:07;5.70;;;2.90;;
42770;SDS011;28426;42.872;25.314;2023-04-24T09:59:42;5.53;;;2.80;;
42770;SDS011;28426;42.872;25.314;2023-04-24T10:02:19;6.13;;;3.50;;
42770;SDS011;28426;42.872;25.314;2023-04-24T10:04:56;5.55;;;2.70;;
42770;SDS011;28426;42.872;25.314;2023-04-24T10:07:32;8.32;;;2.80;;
42770;SDS011;28426;42.872;25.314;2023-04-24T10:10:03;5.85;;;2.85;;
42770;SDS011;28426;42.872;25.314;2023-04-24T10:12:36;5.90;;;3.10;;
42770;SDS011;28426;42.872;25.314;2023-04-24T10:15:08;7.28;;;3.42;;
42770;SDS011;28426;42.872;25.314;2023-04-24T10:17:42;7.18;;;3.22;;
42770;SDS011;28426;42.872;25.314;2023-04-24T10:20:23;8.10;;;3.70;;
42770;SDS011;28426;42.872;25.314;2023-04-24T10:22:56;10.50;;;3.35;;
42770;SDS011;28426;42.872;25.314;2023-04-24T10:28:02;7.25;;;3.30;;
42770;SDS011;28426;42.872;25.314;2023-04-24T10:30:37;11.45;;;3.95;;
42770;SDS011;28426;42.872;25.314;2023-04-24T10:33:09;9.48;;;3.45;;
42770;SDS011;28426;42.872;25.314;2023-04-24T10:35:44;9.65;;;3.17;;
42770;SDS011;28426;42.872;25.314;2023-04-24T10:38:18;7.38;;;4.35;;
42770;SDS011;28426;42.872;25.314;2023-04-24T10:40:57;9.63;;;4.22;;
42770;SDS011;28426;42.872;25.314;2023-04-24T10:43:36;8.05;;;3.72;;
42770;SDS011;28426;42.872;25.314;2023-04-24T10:46:10;13.07;;;4.30;;
42770;SDS011;28426;42.872;25.314;2023-04-24T10:48:52;9.15;;;3.70;;
42770;SDS011;28426;42.872;25.314;2023-04-24T10:51:42;17.80;;;4.20;;
42770;SDS011;28426;42.872;25.314;2023-04-24T10:54:23;12.35;;;3.50;;
42770;SDS011;28426;42.872;25.314;2023-04-24T11:00:10;8.23;;;4.22;;
42770;SDS011;28426;42.872;25.314;2023-04-24T11:02:45;10.23;;;3.85;;
42770;SDS011;28426;42.872;25.314;2023-04-24T11:05:20;8.50;;;3.45;;
42770;SDS011;28426;42.872;25.314;2023-04-24T11:10:47;7.63;;;3.17;;
42770;SDS011;28426;42.872;25.314;2023-04-24T11:13:24;6.43;;;2.80;;
42770;SDS011;28426;42.872;25.314;2023-04-24T11:18:43;7.30;;;3.20;;
42770;SDS011;28426;42.872;25.314;2023-04-24T11:21:22;10.93;;;3.10;;
42770;SDS011;28426;42.872;25.314;2023-04-24T11:23:56;7.68;;;2.88;;
42770;SDS011;28426;42.872;25.314;2023-04-24T11:26:27;5.05;;;2.88;;
42770;SDS011;28426;42.872;25.314;2023-04-24T11:29:06;5.55;;;2.70;;
42770;SDS011;28426;42.872;25.314;2023-04-24T11:31:38;8.07;;;3.35;;
42770;SDS011;28426;42.872;25.314;2023-04-24T11:34:10;6.72;;;3.13;;
42770;SDS011;28426;42.872;25.314;2023-04-24T11:36:42;8.13;;;3.60;;
42770;SDS011;28426;42.872;25.314;2023-04-24T11:39:17;9.75;;;3.55;;
42770;SDS011;28426;42.872;25.314;2023-04-24T11:41:48;6.03;;;3.22;;
42770;SDS011;28426;42.872;25.314;2023-04-24T11:44:19;6.80;;;3.55;;
42770;SDS011;28426;42.872;25.314;2023-04-24T11:46:52;8.27;;;3.22;;
42770;SDS011;28426;42.872;25.314;2023-04-24T11:49:26;7.45;;;3.83;;
42770;SDS011;28426;42.872;25.314;2023-04-24T11:51:57;7.80;;;3.70;;
42770;SDS011;28426;42.872;25.314;2023-04-24T11:54:30;10.43;;;4.00;;
42770;SDS011;28426;42.872;25.314;2023-04-24T11:57:03;7.82;;;4.10;;
42770;SDS011;28426;42.872;25.314;2023-04-24T11:59:36;5.78;;;3.70;;
42770;SDS011;28426;42.872;25.314;2023-04-24T12:02:07;11.63;;;4.05;;
42770;SDS011;28426;42.872;25.314;2023-04-24T12:04:39;8.98;;;3.60;;
42770;SDS011;28426;42.872;25.314;2023-04-24T12:07:11;7.85;;;3.78;;
42770;SDS011;28426;42.872;25.314;2023-04-24T12:09:45;6.75;;;3.78;;
42770;SDS011;28426;42.872;25.314;2023-04-24T12:12:18;10.85;;;3.97;;
42770;SDS011;28426;42.872;25.314;2023-04-24T12:14:49;11.23;;;4.22;;
42770;SDS011;28426;42.872;25.314;2023-04-24T12:17:24;7.87;;;3.33;;
42770;SDS011;28426;42.872;25.314;2023-04-24T12:19:59;12.23;;;6.40;;
42770;SDS011;28426;42.872;25.314;2023-04-24T12:22:43;6.70;;;3.85;;
42770;SDS011;28426;42.872;25.314;2023-04-24T12:25:18;7.38;;;3.67;;
42770;SDS011;28426;42.872;25.314;2023-04-24T12:27:52;11.02;;;5.05;;
42770;SDS011;28426;42.872;25.314;2023-04-24T12:30:26;10.95;;;4.13;;
42770;SDS011;28426;42.872;25.314;2023-04-24T12:32:58;9.05;;;4.05;;
42770;SDS011;28426;42.872;25.314;2023-04-24T12:35:31;11.32;;;3.88;;
42770;SDS011;28426;42.872;25.314;2023-04-24T12:38:06;8.73;;;4.30;;
42770;SDS011;28426;42.872;25.314;2023-04-24T12:43:15;7.13;;;4.20;;
42770;SDS011;28426;42.872;25.314;2023-04-24T12:48:17;10.40;;;4.80;;
42770;SDS011;28426;42.872;25.314;2023-04-24T12:50:49;9.75;;;4.22;;
42770;SDS011;28426;42.872;25.314;2023-04-24T12:53:20;10.35;;;4.10;;
42770;SDS011;28426;42.872;25.314;2023-04-24T12:55:56;11.27;;;4.20;;
42770;SDS011;28426;42.872;25.314;2023-04-24T12:58:27;6.60;;;3.65;;
42770;SDS011;28426;42.872;25.314;2023-04-24T13:00:58;13.55;;;4.00;;
42770;SDS011;28426;42.872;25.314;2023-04-24T13:03:29;9.85;;;4.57;;
42770;SDS011;28426;42.872;25.314;2023-04-24T13:06:00;7.05;;;3.78;;
42770;SDS011;28426;42.872;25.314;2023-04-24T13:08:31;9.35;;;3.97;;
42770;SDS011;28426;42.872;25.314;2023-04-24T13:11:04;9.52;;;4.10;;
42770;SDS011;28426;42.872;25.314;2023-04-24T13:13:35;7.50;;;3.78;;
42770;SDS011;28426;42.872;25.314;2023-04-24T13:16:06;11.65;;;4.15;;
42770;SDS011;28426;42.872;25.314;2023-04-24T13:18:37;10.38;;;4.05;;
42770;SDS011;28426;42.872;25.314;2023-04-24T13:21:08;9.65;;;4.00;;
42770;SDS011;28426;42.872;25.314;2023-04-24T13:23:39;7.18;;;3.80;;
42770;SDS011;28426;42.872;25.314;2023-04-24T13:26:13;10.45;;;3.97;;
42770;SDS011;28426;42.872;25.314;2023-04-24T13:28:44;9.50;;;4.10;;
42770;SDS011;28426;42.872;25.314;2023-04-24T13:31:16;14.15;;;4.35;;
42770;SDS011;28426;42.872;25.314;2023-04-24T13:33:47;7.53;;;4.10;;
42770;SDS011;28426;42.872;25.314;2023-04-24T13:36:18;8.07;;;3.78;;
42770;SDS011;28426;42.872;25.314;2023-04-24T13:38:49;9.63;;;4.22;;
42770;SDS011;28426;42.872;25.314;2023-04-24T13:41:24;7.85;;;3.70;;
42770;SDS011;28426;42.872;25.314;2023-04-24T13:43:55;8.65;;;3.90;;
42770;SDS011;28426;42.872;25.314;2023-04-24T13:46:27;9.05;;;3.92;;
42770;SDS011;28426;42.872;25.314;2023-04-24T13:48:58;7.65;;;3.83;;
42770;SDS011;28426;42.872;25.314;2023-04-24T13:51:29;9.85;;;4.32;;
42770;SDS011;28426;42.872;25.314;2023-04-24T13:54:00;9.10;;;4.38;;
42770;SDS011;28426;42.872;25.314;2023-04-24T13:56:34;9.77;;;3.88;;
42770;SDS011;28426;42.872;25.314;2023-04-24T13:59:05;7.55;;;4.00;;
42770;SDS011;28426;42.872;25.314;2023-04-24T14:01:35;7.68;;;4.00;;
42770;SDS011;28426;42.872;25.314;2023-04-24T14:04:06;9.95;;;4.50;;
42770;SDS011;28426;42.872;25.314;2023-04-24T14:06:38;9.13;;;4.30;;
42770;SDS011;28426;42.872;25.314;2023-04-24T14:09:08;7.80;;;3.97;;
42770;SDS011;28426;42.872;25.314;2023-04-24T14:11:42;8.25;;;3.63;;
42770;SDS011;28426;42.872;25.314;2023-04-24T14:14:13;6.53;;;4.05;;
42770;SDS011;28426;42.872;25.314;2023-04-24T14:16:44;7.22;;;4.57;;
42770;SDS011;28426;42.872;25.314;2023-04-24T14:19:15;10.93;;;5.00;;
42770;SDS011;28426;42.872;25.314;2023-04-24T14:21:46;7.78;;;3.75;;
42770;SDS011;28426;42.872;25.314;2023-04-24T14:24:17;8.50;;;4.28;;
42770;SDS011;28426;42.872;25.314;2023-04-24T14:26:51;9.00;;;4.47;;
42770;SDS011;28426;42.872;25.314;2023-04-24T14:29:23;6.75;;;4.45;;
42770;SDS011;28426;42.872;25.314;2023-04-24T14:31:54;9.32;;;4.72;;
42770;SDS011;28426;42.872;25.314;2023-04-24T14:34:25;8.40;;;4.82;;
42770;SDS011;28426;42.872;25.314;2023-04-24T14:36:56;8.60;;;4.35;;
42770;SDS011;28426;42.872;25.314;2023-04-24T14:39:27;10.82;;;4.45;;
42770;SDS011;28426;42.872;25.314;2023-04-24T14:42:01;11.68;;;5.03;;
42770;SDS011;28426;42.872;25.314;2023-04-24T14:44:32;11.32;;;4.47;;
42770;SDS011;28426;42.872;25.314;2023-04-24T14:47:03;9.35;;;4.93;;
42770;SDS011;28426;42.872;25.314;2023-04-24T14:49:34;8.80;;;5.15;;
42770;SDS011;28426;42.872;25.314;2023-04-24T14:52:05;9.27;;;4.53;;
42770;SDS011;28426;42.872;25.314;2023-04-24T14:54:36;9.98;;;4.45;;
42770;SDS011;28426;42.872;25.314;2023-04-24T14:57:09;10.35;;;5.60;;
42770;SDS011;28426;42.872;25.314;2023-04-24T14:59:42;9.95;;;4.65;;
42770;SDS011;28426;42.872;25.314;2023-04-24T15:02:13;8.45;;;4.88;;
42770;SDS011;28426;42.872;25.314;2023-04-24T15:04:46;7.93;;;4.07;;
42770;SDS011;28426;42.872;25.314;2023-04-24T15:07:18;8.85;;;4.68;;
42770;SDS011;28426;42.872;25.314;2023-04-24T15:09:49;7.30;;;4.13;;
42770;SDS011;28426;42.872;25.314;2023-04-24T15:12:22;9.15;;;4.22;;
42770;SDS011;28426;42.872;25.314;2023-04-24T15:14:53;9.40;;;5.13;;
42770;SDS011;28426;42.872;25.314;2023-04-24T15:17:24;6.35;;;4.32;;
42770;SDS011;28426;42.872;25.314;2023-04-24T15:19:55;9.63;;;4.40;;
42770;SDS011;28426;42.872;25.314;2023-04-24T15:22:32;8.82;;;4.80;;